Time;durP1;ratioP1;P1;durP2;ratioP2;P2;SDS_P1;SDS_P2;PMS_P1;PMS_P2;Temp;Humidity;BMP_temperature;BMP_pressure;BME280_temperature;BME280_humidity;BME280_pressure;Samples;Min_cycle;Max_cycle;Signal;HPM_P1;HPM_P2
2022/09/13 00:02:08;;;;;;;8.33;5.35;;;;;;;13.75;75.23;98563.55;1802329;79;20976;-41
2022/09/13 00:04:35;;;;;;;8.18;5.95;;;;;;;13.76;75.11;98562.38;1802484;79;21086;-41
2022/09/13 00:07:02;;;;;;;7.08;5.50;;;;;;;13.73;75.27;98559.88;1802423;79;21277;-41
2022/09/13 00:09:29;;;;;;;6.30;5.42;;;;;;;13.74;75.31;98553.27;1802223;79;21510;-41
2022/09/13 00:11:56;;;;;;;8.43;5.45;;;;;;;13.78;75.17;98555.95;1802469;79;20951;-41
2022/09/13 00:14:25;;;;;;;7.35;5.58;;;;;;;13.81;75.12;98552.42;1802613;79;21581;-41
2022/09/13 00:16:51;;;;;;;9.88;6.35;;;;;;;13.86;75.10;98555.50;1802530;79;21470;-41
2022/09/13 00:19:18;;;;;;;7.12;5.67;;;;;;;13.84;75.04;98558.45;1802505;79;21223;-41
2022/09/13 00:21:44;;;;;;;11.20;6.20;;;;;;;13.84;75.14;98555.14;1802409;79;20999;-41
2022/09/13 00:24:11;;;;;;;6.70;5.08;;;;;;;13.87;75.17;98550.83;1802517;79;20978;-41
2022/09/13 00:26:37;;;;;;;7.05;4.67;;;;;;;13.86;75.02;98552.00;1802364;79;21045;-41
2022/09/13 00:29:04;;;;;;;5.28;4.75;;;;;;;13.93;74.79;98555.47;1794757;79;21037;-41
2022/09/13 00:31:31;;;;;;;5.97;5.20;;;;;;;13.96;74.75;98550.38;1783201;80;21205;-41
2022/09/13 00:33:58;;;;;;;5.10;4.60;;;;;;;13.92;74.83;98548.45;1783132;79;21499;-41
2022/09/13 00:36:25;;;;;;;7.53;4.60;;;;;;;13.90;74.90;98555.47;1783375;80;21056;-41
2022/09/13 00:38:52;;;;;;;4.90;4.22;;;;;;;13.90;74.79;98550.02;1783289;80;21495;-41
2022/09/13 00:41:19;;;;;;;7.20;4.53;;;;;;;13.94;74.83;98554.88;1783655;80;21511;-41
2022/09/13 00:43:55;;;;;;;5.60;4.35;;;;;;;13.98;74.77;98546.67;1786446;80;21729;-41
2022/09/13 00:46:40;;;;;;;5.90;4.15;;;;;;;13.95;74.74;98552.31;1789304;80;21021;-41
2022/09/13 00:49:35;;;;;;;4.72;3.85;;;;;;;13.89;74.89;98547.13;1789417;80;21495;-41
2022/09/13 00:52:07;;;;;;;3.92;3.60;;;;;;;13.92;74.99;98546.31;1789419;79;20997;-41
2022/09/13 00:54:39;;;;;;;4.70;3.58;;;;;;;13.96;74.96;98542.20;1789255;79;21048;-41
2022/09/13 00:57:06;;;;;;;4.20;3.80;;;;;;;13.99;75.16;98547.61;1789434;80;21845;-41
2022/09/13 00:59:42;;;;;;;4.85;4.15;;;;;;;14.02;75.04;98548.77;1769334;80;21017;-41
2022/09/13 01:02:10;;;;;;;4.90;3.47;;;;;;;13.99;74.97;98544.88;1789459;79;20913;-41
2022/09/13 01:04:36;;;;;;;4.12;3.30;;;;;;;13.99;75.02;98540.05;1789136;80;21571;-41
2022/09/13 01:07:06;;;;;;;8.10;4.33;;;;;;;14.06;74.97;98539.39;1789210;80;21048;-41
2022/09/13 01:09:35;;;;;;;6.87;4.15;;;;;;;14.12;74.81;98535.06;1789662;80;21660;-41
2022/09/13 01:12:11;;;;;;;5.53;4.28;;;;;;;14.10;74.74;98533.90;1789272;79;20953;-41
2022/09/13 01:14:39;;;;;;;5.62;3.77;;;;;;;14.06;74.87;98542.12;1789218;79;21471;-41
2022/09/13 01:17:05;;;;;;;5.42;3.50;;;;;;;14.07;74.87;98542.30;1789316;80;21503;-41
2022/09/13 01:19:34;;;;;;;6.90;3.87;;;;;;;14.11;74.85;98539.55;1718870;80;21004;-41
2022/09/13 01:22:25;;;;;;;7.40;4.50;;;;;;;14.14;74.97;98540.87;1742803;80;21157;-41
2022/09/13 01:25:27;;;;;;;6.62;3.90;;;;;;;14.15;74.91;98541.06;1789017;80;20905;-41
2022/09/13 01:28:23;;;;;;;5.92;4.35;;;;;;;14.13;74.93;98551.61;1789152;80;20961;-41
2022/09/13 01:31:13;;;;;;;5.80;4.30;;;;;;;14.13;74.90;98543.43;1788822;79;21072;-41
2022/09/13 01:34:15;;;;;;;6.80;4.60;;;;;;;14.06;74.97;98540.75;1789117;80;21016;-40
2022/09/13 01:36:57;;;;;;;5.75;5.15;;;;;;;13.99;75.39;98542.16;1788998;79;21240;-40
2022/09/13 01:39:45;;;;;;;9.08;5.30;;;;;;;13.91;75.66;98536.59;1775058;79;21486;-42
2022/09/13 01:42:40;;;;;;;6.40;5.53;;;;;;;13.87;75.90;98534.48;1788657;79;21004;-40
2022/09/13 01:45:25;;;;;;;8.60;5.87;;;;;;;13.92;75.95;98532.11;1773242;79;22073;-40
2022/09/13 01:48:15;;;;;;;11.10;5.55;;;;;;;13.92;76.07;98528.61;1743533;80;21061;-41
2022/09/13 01:50:47;;;;;;;7.12;5.60;;;;;;;13.87;76.25;98524.36;1772577;81;21603;-40
2022/09/13 01:53:40;;;;;;;7.40;5.17;;;;;;;13.88;76.37;98518.33;1772590;79;21071;-41
2022/09/13 01:56:18;;;;;;;10.48;6.55;;;;;;;13.90;76.32;98518.10;1762067;80;21034;-41
2022/09/13 01:58:59;;;;;;;10.95;7.33;;;;;;;13.83;76.57;98516.03;1772517;81;21009;-40
2022/09/13 02:01:30;;;;;;;8.68;6.40;;;;;;;13.79;76.87;98514.70;1772732;81;21029;-41
2022/09/13 02:04:12;;;;;;;8.85;5.80;;;;;;;13.76;77.07;98518.80;1772322;80;21905;-41
2022/09/13 02:06:48;;;;;;;9.03;5.62;;;;;;;13.76;77.25;98524.25;1772534;80;20941;-41
2022/09/13 02:09:18;;;;;;;9.85;6.58;;;;;;;13.85;77.13;98520.48;1772398;80;20875;-41
2022/09/13 02:11:49;;;;;;;8.35;6.42;;;;;;;13.91;77.13;98527.83;1772794;81;21563;-41
2022/09/13 02:14:23;;;;;;;9.85;6.92;;;;;;;13.90;77.22;98523.55;1772797;81;21356;-40
2022/09/13 02:17:05;;;;;;;9.23;6.40;;;;;;;13.90;77.14;98523.55;1773030;81;21026;-41
2022/09/13 02:19:56;;;;;;;7.33;5.65;;;;;;;13.93;77.14;98522.77;1759624;81;21534;-41
2022/09/13 02:22:34;;;;;;;6.62;5.62;;;;;;;14.00;76.92;98519.77;1772789;81;20989;-41
2022/09/13 02:25:08;;;;;;;8.00;5.70;;;;;;;13.97;76.82;98522.73;1772748;81;21073;-41
2022/09/13 02:27:35;;;;;;;9.13;5.97;;;;;;;13.91;77.00;98521.60;1772581;80;20990;-41
2022/09/13 02:30:06;;;;;;;6.28;5.65;;;;;;;13.93;77.01;98524.71;1772665;81;21220;-41
2022/09/13 02:32:43;;;;;;;6.72;5.37;;;;;;;13.97;77.00;98520.00;1772771;81;21070;-41
2022/09/13 02:35:29;;;;;;;6.92;5.62;;;;;;;14.01;77.10;98516.66;1772495;81;20954;-41
2022/09/13 02:38:12;;;;;;;8.18;6.17;;;;;;;14.06;77.17;98516.81;1772633;79;21061;-41
2022/09/13 02:40:43;;;;;;;8.80;5.67;;;;;;;14.04;76.97;98520.55;1770067;80;21764;-41
2022/09/13 02:43:19;;;;;;;7.72;5.78;;;;;;;14.02;76.78;98518.21;1772674;79;21077;-42
2022/09/13 02:45:54;;;;;;;8.25;6.00;;;;;;;14.05;76.76;98515.25;1788555;79;20961;-41
2022/09/13 02:48:41;;;;;;;7.20;5.62;;;;;;;14.01;76.96;98518.02;1784109;79;20992;-41
2022/09/13 02:51:22;;;;;;;6.15;5.45;;;;;;;13.98;77.19;98512.02;1788905;79;21515;-41
2022/09/13 02:54:09;;;;;;;6.80;5.72;;;;;;;13.99;77.16;98513.55;1789259;80;21025;-41
2022/09/13 02:56:52;;;;;;;7.08;5.50;;;;;;;14.08;77.11;98511.74;1778945;80;23150;-41
2022/09/13 02:59:22;;;;;;;7.22;6.40;;;;;;;14.10;77.09;98512.09;1788462;79;20949;-41
2022/09/13 03:02:01;;;;;;;5.90;5.30;;;;;;;14.08;77.10;98513.88;1788913;80;21013;-41
2022/09/13 03:04:28;;;;;;;;;;;;;;;14.12;76.95;98510.53;1791463;80;21617;-41
2022/09/13 03:06:55;;;;;;;7.78;5.78;;;;;;;14.18;76.89;98515.74;1789027;80;20154;-41
2022/09/13 03:09:21;;;;;;;8.38;5.95;;;;;;;14.12;77.18;98512.48;1789174;79;21933;-41
2022/09/13 03:12:18;;;;;;;8.03;6.47;;;;;;;14.15;77.14;98516.53;1789028;79;21502;-41
2022/09/13 03:15:06;;;;;;;7.53;5.65;;;;;;;14.15;76.93;98508.35;1788989;79;21534;-41
2022/09/13 03:18:14;;;;;;;8.23;6.05;;;;;;;14.13;76.94;98508.58;1788607;79;21048;-41
2022/09/13 03:21:01;;;;;;;7.75;6.33;;;;;;;14.14;76.94;98512.25;1789152;79;21040;-41
2022/09/13 03:23:52;;;;;;;8.40;6.05;;;;;;;14.14;77.11;98514.97;1788976;79;21247;-41
2022/09/13 03:26:57;;;;;;;7.72;5.28;;;;;;;14.14;77.04;98512.25;1788262;79;20973;-40
2022/09/13 03:29:38;;;;;;;7.95;5.33;;;;;;;14.14;77.02;98514.97;1789321;79;21548;-41
2022/09/13 03:32:30;;;;;;;6.75;5.50;;;;;;;14.01;76.82;98485.31;1789316;79;20960;-41
2022/09/13 03:35:15;;;;;;;5.92;4.72;;;;;;;14.21;76.90;98518.23;1789639;79;20952;-41
2022/09/13 03:38:07;;;;;;;8.90;5.42;;;;;;;14.21;76.85;98514.92;1789100;80;23142;-41
2022/09/13 03:40:51;;;;;;;8.05;5.03;;;;;;;14.22;76.63;98519.20;1789189;80;20961;-41
2022/09/13 03:43:37;;;;;;;6.40;4.95;;;;;;;14.29;76.70;98512.89;1789212;80;20974;-41
2022/09/13 03:46:18;;;;;;;7.95;5.53;;;;;;;14.33;76.54;98520.44;1789131;80;21572;-41
2022/09/13 03:48:45;;;;;;;5.95;4.80;;;;;;;14.33;76.42;98517.13;1789423;79;21037;-41
2022/09/13 03:51:12;;;;;;;5.15;4.53;;;;;;;14.34;76.14;98509.14;1789132;79;21199;-41
2022/09/13 03:53:44;;;;;;;5.20;4.65;;;;;;;14.38;76.19;98515.20;1718314;80;20961;-41
2022/09/13 03:56:15;;;;;;;6.75;5.33;;;;;;;14.41;76.07;98517.10;1787533;79;21199;-41
2022/09/13 03:58:42;;;;;;;6.03;5.40;;;;;;;14.43;76.18;98512.78;1788978;80;21792;-41
2022/09/13 04:01:09;;;;;;;5.87;4.70;;;;;;;14.42;75.97;98518.66;1788863;80;21013;-41
2022/09/13 04:03:37;;;;;;;6.17;4.80;;;;;;;14.41;76.03;98511.06;1789135;80;21565;-40
2022/09/13 04:06:06;;;;;;;8.75;5.05;;;;;;;14.51;75.92;98514.86;1789232;79;21519;-41
2022/09/13 04:08:32;;;;;;;5.50;4.90;;;;;;;14.54;75.70;98516.77;1783677;79;21000;-41
2022/09/13 04:11:00;;;;;;;6.47;4.83;;;;;;;14.53;75.62;98515.98;1789280;80;20925;-41
2022/09/13 04:13:28;;;;;;;5.65;4.50;;;;;;;14.50;75.60;98516.03;1789029;80;21009;-41
2022/09/13 04:15:54;;;;;;;6.08;4.60;;;;;;;14.47;75.52;98520.94;1789202;80;21515;-41
2022/09/13 04:18:22;;;;;;;4.90;4.10;;;;;;;14.48;75.50;98533.38;1769259;80;20960;-41
2022/09/13 04:20:54;;;;;;;6.42;4.37;;;;;;;14.44;75.55;98531.28;1788690;80;21540;-41
2022/09/13 04:23:22;;;;;;;5.12;4.37;;;;;;;14.40;75.68;98533.27;1789053;80;21576;-41
2022/09/13 04:25:52;;;;;;;7.50;4.87;;;;;;;14.39;75.92;98537.17;1789492;80;21019;-41
2022/09/13 04:28:20;;;;;;;5.85;5.10;;;;;;;14.40;75.95;98531.91;1789368;79;21054;-41
2022/09/13 04:30:47;;;;;;;9.78;5.45;;;;;;;14.46;75.74;98537.89;1788968;80;21054;-41
2022/09/13 04:33:16;;;;;;;9.25;6.67;;;;;;;14.48;75.83;98537.47;1789420;80;21006;-41
2022/09/13 04:35:43;;;;;;;9.33;6.70;;;;;;;14.52;75.77;98536.87;1789140;79;20943;-41
2022/09/13 04:38:09;;;;;;;11.53;6.62;;;;;;;14.51;75.79;98536.68;1789246;79;21006;-41
2022/09/13 04:40:38;;;;;;;9.78;6.50;;;;;;;14.52;75.77;98538.23;1788989;79;21151;-41
2022/09/13 04:43:05;;;;;;;8.23;7.33;;;;;;;14.59;75.50;98530.73;1789212;79;21605;-41
2022/09/13 04:45:32;;;;;;;11.97;7.72;;;;;;;14.65;75.37;98535.16;1788803;78;21450;-41
2022/09/13 04:48:01;;;;;;;9.63;8.10;;;;;;;14.66;75.24;98540.81;1789251;80;21002;-41
2022/09/13 04:50:28;;;;;;;10.53;7.67;;;;;;;14.67;75.19;98540.97;1789484;80;21014;-41
2022/09/13 04:52:55;;;;;;;12.45;8.43;;;;;;;14.67;74.99;98539.61;1789263;80;23140;-41
2022/09/13 04:55:21;;;;;;;11.20;8.68;;;;;;;14.70;74.66;98542.31;1789095;80;21487;-41
2022/09/13 04:57:55;;;;;;;10.43;8.35;;;;;;;14.66;74.62;98544.31;1789334;79;21504;-41
2022/09/13 05:00:23;;;;;;;10.82;8.18;;;;;;;14.66;74.88;98549.77;1789584;80;21026;-41
2022/09/13 05:02:55;;;;;;;10.10;8.18;;;;;;;14.68;74.94;98551.48;1789222;80;20969;-41
2022/09/13 05:05:24;;;;;;;10.55;7.95;;;;;;;14.72;74.84;98548.71;1789441;80;21138;-41
2022/09/13 05:07:51;;;;;;;13.43;9.15;;;;;;;14.74;74.58;98551.82;1789236;80;21011;-41
2022/09/13 05:10:19;;;;;;;13.53;9.58;;;;;;;14.71;74.39;98555.38;1789188;80;21453;-41
2022/09/13 05:12:46;;;;;;;14.90;9.10;;;;;;;14.65;74.54;98550.95;1789053;79;21006;-41
2022/09/13 05:15:13;;;;;;;14.18;8.43;;;;;;;14.60;74.66;98551.97;1789204;80;21006;-41
2022/09/13 05:17:40;;;;;;;11.30;8.53;;;;;;;14.58;74.92;98555.69;1788984;80;23119;-41
2022/09/13 05:20:09;;;;;;;10.15;8.08;;;;;;;14.65;74.93;98551.53;1789120;79;21521;-41
2022/09/13 05:22:35;;;;;;;14.33;9.18;;;;;;;14.68;74.78;98553.44;1789291;80;20997;-41
2022/09/13 05:25:04;;;;;;;14.45;8.50;;;;;;;14.68;74.70;98554.80;1789052;80;20991;-41
2022/09/13 05:27:30;;;;;;;10.45;7.78;;;;;;;14.65;74.61;98555.04;1789329;80;21027;-41
2022/09/13 05:29:59;;;;;;;11.53;8.30;;;;;;;14.63;74.59;98560.70;1789160;79;21053;-41
2022/09/13 05:32:26;;;;;;;15.00;8.38;;;;;;;14.68;74.71;98565.72;1789010;80;20943;-41
2022/09/13 05:34:53;;;;;;;13.08;8.45;;;;;;;14.69;74.65;98563.95;1788991;80;20951;-41
2022/09/13 05:37:20;;;;;;;12.68;8.30;;;;;;;14.68;74.53;98556.16;1789104;79;21018;-41
2022/09/13 05:39:47;;;;;;;12.43;8.20;;;;;;;14.67;74.60;98565.52;1789057;80;21345;-41
2022/09/13 05:42:14;;;;;;;10.18;8.05;;;;;;;14.64;74.53;98560.89;1789069;80;21237;-41
2022/09/13 05:44:41;;;;;;;11.60;8.28;;;;;;;14.66;74.48;98566.14;1788843;79;20939;-41
2022/09/13 05:47:08;;;;;;;11.97;9.85;;;;;;;14.69;74.63;98570.00;1789123;80;21026;-41
2022/09/13 05:49:35;;;;;;;15.75;8.90;;;;;;;14.65;74.60;98567.31;1789129;80;21023;-41
2022/09/13 05:52:02;;;;;;;9.65;8.08;;;;;;;14.60;74.56;98572.43;1789199;79;21026;-41
2022/09/13 05:54:28;;;;;;;10.58;7.87;;;;;;;14.56;74.75;98572.47;1789088;79;21066;-41
2022/09/13 05:56:56;;;;;;;11.43;7.87;;;;;;;14.61;74.76;98572.03;1788998;80;21010;-41
2022/09/13 05:59:23;;;;;;;13.05;8.40;;;;;;;14.63;74.54;98577.84;1789276;80;20988;-41
2022/09/13 06:01:49;;;;;;;8.70;7.72;;;;;;;14.61;74.76;98579.44;1789175;80;21574;-41
2022/09/13 06:04:17;;;;;;;9.23;7.33;;;;;;;14.63;74.74;98587.39;1789295;80;20994;-41
2022/09/13 06:06:46;;;;;;;12.58;7.58;;;;;;;14.71;74.66;98585.38;1789406;79;21126;-41
2022/09/13 06:09:12;;;;;;;11.38;8.05;;;;;;;14.80;74.42;98581.58;1789104;80;21475;-41
2022/09/13 06:11:39;;;;;;;11.53;8.10;;;;;;;14.87;74.28;98582.86;1789315;79;20958;-41
2022/09/13 06:14:06;;;;;;;13.62;8.53;;;;;;;14.89;73.97;98587.91;1789253;79;20954;-41
2022/09/13 06:16:33;;;;;;;12.85;8.90;;;;;;;14.89;73.92;98584.59;1789298;79;21062;-41
2022/09/13 06:19:00;;;;;;;10.35;7.53;;;;;;;14.89;73.80;98590.05;1789124;79;21131;-41
2022/09/13 06:21:27;;;;;;;10.82;7.50;;;;;;;14.91;73.72;98593.75;1788894;80;21481;-41
2022/09/13 06:23:54;;;;;;;14.05;7.60;;;;;;;14.93;73.37;98596.25;1789143;80;21040;-41
2022/09/13 06:26:23;;;;;;;12.20;8.55;;;;;;;14.93;73.42;98590.78;1789133;79;20872;-41
2022/09/13 06:28:52;;;;;;;12.53;7.72;;;;;;;14.94;73.32;98590.98;1789129;80;21038;-41
2022/09/13 06:31:21;;;;;;;11.88;7.62;;;;;;;14.93;73.19;98591.37;1789608;80;21715;-41
2022/09/13 06:33:48;;;;;;;13.45;7.03;;;;;;;14.92;73.06;98598.78;1788887;79;21026;-41
2022/09/13 06:36:19;;;;;;;11.53;6.80;;;;;;;14.90;72.86;98595.70;1789458;80;20919;-41
2022/09/13 06:38:51;;;;;;;11.88;7.28;;;;;;;14.88;73.08;98601.37;1788965;80;20999;-41
2022/09/13 06:41:18;;;;;;;11.95;7.05;;;;;;;14.86;73.20;98607.84;1788477;78;21021;-41
2022/09/13 06:43:46;;;;;;;12.58;7.22;;;;;;;14.82;73.21;98613.31;1789229;79;21064;-41
2022/09/13 06:46:16;;;;;;;11.12;6.67;;;;;;;14.83;73.04;98608.05;1788970;79;20988;-41
2022/09/13 06:48:43;;;;;;;11.15;7.30;;;;;;;14.88;72.80;98608.20;1788936;80;21000;-41
2022/09/13 06:51:18;;;;;;;10.93;7.50;;;;;;;14.92;72.78;98606.20;1789309;79;20925;-41
2022/09/13 06:53:47;;;;;;;14.07;7.50;;;;;;;14.90;72.84;98606.63;1788553;79;21204;-41
2022/09/13 06:56:23;;;;;;;10.10;7.03;;;;;;;14.88;72.87;98610.34;1789097;80;21139;-41
2022/09/13 06:58:53;;;;;;;10.30;6.85;;;;;;;14.89;72.73;98611.89;1789086;80;20948;-41
2022/09/13 07:01:21;;;;;;;;;;;;;;;14.91;72.63;98612.86;1791677;80;21060;-41
2022/09/13 07:03:56;;;;;;;9.98;7.33;;;;;;;14.91;72.43;98609.52;1789146;80;20125;-41
2022/09/13 07:06:26;;;;;;;10.63;7.53;;;;;;;14.80;72.91;98618.42;1789204;79;21068;-41
2022/09/13 07:08:55;;;;;;;14.63;7.33;;;;;;;14.81;72.94;98613.16;1789403;79;21085;-41
2022/09/13 07:11:24;;;;;;;9.55;6.83;;;;;;;14.82;72.97;98620.14;1789151;80;21507;-41
2022/09/13 07:13:53;;;;;;;11.80;6.87;;;;;;;14.82;73.07;98616.05;1789252;80;21511;-41
2022/09/13 07:16:22;;;;;;;9.25;7.40;;;;;;;14.90;73.04;98618.91;1789347;80;20917;-40
2022/09/13 07:18:54;;;;;;;11.63;7.75;;;;;;;14.93;72.89;98618.08;1789050;79;21016;-41
2022/09/13 07:21:22;;;;;;;13.18;7.62;;;;;;;14.97;72.66;98617.45;1789130;80;21955;-41
2022/09/13 07:23:48;;;;;;;11.12;7.78;;;;;;;14.99;72.51;98622.52;1789071;79;21008;-41
2022/09/13 07:26:15;;;;;;;8.98;7.08;;;;;;;14.98;72.47;98620.37;1768909;80;20965;-41
2022/09/13 07:28:45;;;;;;;8.60;6.40;;;;;;;14.97;72.30;98624.27;1788915;79;21068;-41
2022/09/13 07:31:23;;;;;;;10.45;7.22;;;;;;;14.94;72.05;98618.27;1789119;80;21001;-41
2022/09/13 07:33:56;;;;;;;7.97;6.75;;;;;;;14.85;72.31;98623.44;1788531;79;21105;-41
2022/09/13 07:36:24;;;;;;;8.45;6.37;;;;;;;14.78;72.59;98615.31;1770551;80;21008;-41
2022/09/13 07:38:50;;;;;;;7.70;5.72;;;;;;;14.70;72.72;98617.93;1788995;79;20969;-41
2022/09/13 07:41:19;;;;;;;7.37;5.50;;;;;;;14.65;73.12;98619.14;1789039;80;20964;-41
2022/09/13 07:43:47;;;;;;;7.43;5.60;;;;;;;14.73;73.23;98617.11;1789216;79;21558;-41
2022/09/13 07:46:20;;;;;;;7.90;6.15;;;;;;;14.73;73.28;98615.75;1779693;79;21124;-41
2022/09/13 07:48:48;;;;;;;10.15;5.40;;;;;;;14.75;73.58;98619.64;1772563;81;21056;-41
2022/09/13 07:51:17;;;;;;;5.40;4.83;;;;;;;14.81;73.65;98626.02;1772886;79;21006;-41
2022/09/13 07:53:44;;;;;;;5.40;4.90;;;;;;;14.86;73.19;98622.84;1772297;81;21081;-41
2022/09/13 07:56:14;;;;;;;7.05;5.78;;;;;;;14.88;72.93;98625.94;1772843;81;21045;-41
2022/09/13 08:00:23;;;;;;;10.25;6.37;;;;;;;14.87;72.84;98621.06;1830075;78;22540;-41
2022/09/13 08:02:51;;;;;;;8.95;6.58;;;;;;;14.69;72.92;98628.06;1802813;79;20995;-41
2022/09/13 08:05:18;;;;;;;7.90;6.10;;;;;;;14.58;73.06;98630.70;1802934;79;21226;-41
2022/09/13 08:07:45;;;;;;;8.38;6.05;;;;;;;14.52;73.42;98629.60;1802771;79;20967;-41
2022/09/13 08:10:13;;;;;;;7.80;7.00;;;;;;;14.52;73.44;98633.70;1802953;79;21516;-41
2022/09/13 08:12:41;;;;;;;10.45;7.33;;;;;;;14.49;73.62;98637.20;1802946;79;21521;-41
2022/09/13 08:15:09;;;;;;;10.35;7.92;;;;;;;14.42;73.52;98640.78;1802898;79;21037;-41
2022/09/13 08:17:35;;;;;;;10.20;7.70;;;;;;;14.36;73.81;98634.20;1803104;79;21125;-41
2022/09/13 08:20:03;;;;;;;10.65;7.58;;;;;;;14.31;73.81;98638.70;1802741;79;20951;-40
2022/09/13 08:22:30;;;;;;;12.78;8.38;;;;;;;14.29;73.86;98639.67;1802656;79;21002;-41
2022/09/13 08:24:56;;;;;;;10.90;8.23;;;;;;;14.26;74.22;98634.45;1802671;79;21023;-41
2022/09/13 08:27:23;;;;;;;10.03;8.48;;;;;;;14.29;74.47;98649.99;1802772;79;21039;-41
2022/09/13 08:29:51;;;;;;;20.17;8.53;;;;;;;14.35;74.49;98639.44;1802463;79;21880;-41
2022/09/13 08:32:18;;;;;;;12.25;7.30;;;;;;;14.37;74.23;98637.13;1802505;79;21500;-41
2022/09/13 08:34:45;;;;;;;12.20;8.75;;;;;;;14.44;74.02;98636.27;1802567;79;20924;-41
2022/09/13 08:37:12;;;;;;;12.23;9.05;;;;;;;14.44;74.02;98628.87;1771594;79;21038;-41
2022/09/13 08:39:38;;;;;;;13.72;10.45;;;;;;;14.48;74.33;98642.47;1802501;79;20970;-41
2022/09/13 08:42:45;;;;;;;10.55;9.08;;;;;;;14.50;74.33;98636.03;1746453;79;21850;-41
2022/09/13 08:45:12;;;;;;;14.45;8.58;;;;;;;14.54;73.92;98638.14;1762280;79;20950;-41
2022/09/13 08:47:53;;;;;;;14.55;9.50;;;;;;;14.51;73.63;98638.95;1802635;79;20888;-41
2022/09/13 08:50:32;;;;;;;11.40;9.50;;;;;;;14.50;73.40;98633.31;1802610;79;21013;-41
2022/09/13 08:53:19;;;;;;;14.05;9.15;;;;;;;14.49;73.33;98631.75;1802805;79;20991;-41
2022/09/13 08:55:54;;;;;;;12.37;8.85;;;;;;;14.50;73.51;98625.12;1802452;79;21111;-41
2022/09/13 08:58:51;;;;;;;9.93;8.08;;;;;;;14.61;73.65;98629.91;1802069;79;21042;-41
2022/09/13 09:01:26;;;;;;;11.78;8.45;;;;;;;14.73;72.96;98628.03;1791678;79;20995;-41
2022/09/13 09:04:04;;;;;;;10.65;8.88;;;;;;;14.71;72.12;98624.95;1791868;79;21502;-41
2022/09/13 09:06:34;;;;;;;11.25;8.78;;;;;;;14.66;72.23;98629.47;1791700;80;22043;-41
2022/09/13 09:09:07;;;;;;;10.88;8.28;;;;;;;14.68;72.27;98639.38;1791615;80;21210;-41
2022/09/13 09:12:02;;;;;;;12.88;8.23;;;;;;;14.66;72.40;98637.66;1790914;80;21078;-41
2022/09/13 09:14:33;;;;;;;9.93;8.70;;;;;;;14.67;72.37;98637.23;1791332;79;21494;-41
2022/09/13 09:17:05;;;;;;;10.05;8.88;;;;;;;14.66;72.56;98637.07;1791232;80;21059;-41
2022/09/13 09:19:44;;;;;;;11.33;8.95;;;;;;;14.67;72.33;98639.96;1791254;80;21549;-41
2022/09/13 09:22:20;;;;;;;11.15;7.85;;;;;;;14.68;72.29;98636.06;1786523;79;21231;-41
2022/09/13 09:24:55;;;;;;;11.80;8.18;;;;;;;14.75;72.02;98637.95;1791043;80;21808;-41
2022/09/13 09:27:22;;;;;;;11.22;8.45;;;;;;;14.87;71.89;98642.89;1791284;79;20998;-41
2022/09/13 09:29:52;;;;;;;10.53;8.83;;;;;;;14.94;71.54;98636.02;1791253;80;20996;-41
2022/09/13 09:32:49;;;;;;;12.03;9.03;;;;;;;14.94;71.60;98640.11;1791539;79;21027;-41
2022/09/13 09:35:31;;;;;;;14.78;8.78;;;;;;;14.98;71.48;98638.11;1791103;79;23116;-41
2022/09/13 09:38:33;;;;;;;11.10;8.05;;;;;;;14.99;69.89;98641.03;1790989;80;21536;-41
2022/09/13 09:41:04;;;;;;;12.30;8.33;;;;;;;15.01;70.16;98639.23;1786089;79;21872;-41
2022/09/13 09:43:52;;;;;;;11.28;8.73;;;;;;;15.05;70.19;98635.32;1791170;80;20924;-41
2022/09/13 09:46:23;;;;;;;12.28;9.40;;;;;;;15.09;69.83;98634.69;1780125;80;20999;-41
2022/09/13 09:48:53;;;;;;;14.28;9.23;;;;;;;15.11;69.95;98632.30;1791372;80;21364;-41
2022/09/13 09:51:21;;;;;;;13.38;8.60;;;;;;;15.09;69.02;98622.40;1791136;80;21055;-41
2022/09/13 09:53:50;;;;;;;10.82;7.87;;;;;;;15.03;69.24;98624.02;1769413;80;21046;-41
2022/09/13 09:56:27;;;;;;;10.63;7.47;;;;;;;15.00;69.48;98629.53;1769357;80;20996;-41
2022/09/13 09:58:54;;;;;;;9.88;8.45;;;;;;;15.02;69.51;98624.42;1791866;79;21216;-41
2022/09/13 10:01:33;;;;;;;11.75;8.30;;;;;;;15.02;68.91;98627.15;1797148;79;21232;-41
2022/09/13 10:04:15;;;;;;;11.53;8.00;;;;;;;15.00;68.75;98624.84;1797282;79;21545;-41
2022/09/13 10:06:45;;;;;;;13.80;8.45;;;;;;;14.94;68.75;98627.83;1796819;79;20975;-41
2022/09/13 10:09:16;;;;;;;9.80;7.58;;;;;;;14.87;68.33;98621.65;1797075;79;21011;-41
2022/09/13 10:11:50;;;;;;;13.03;7.97;;;;;;;14.76;68.14;98627.98;1796989;79;21003;-41
2022/09/13 10:14:32;;;;;;;13.88;9.10;;;;;;;14.72;68.45;98629.20;1792737;79;21067;-41
2022/09/13 10:17:24;;;;;;;13.08;9.10;;;;;;;14.70;69.07;98631.58;1796965;79;20923;-41
2022/09/13 10:20:02;;;;;;;12.00;9.00;;;;;;;14.67;69.28;98633.14;1796918;79;21058;-41
2022/09/13 10:22:31;;;;;;;13.80;9.28;;;;;;;14.63;69.46;98627.53;1793254;79;21368;-41
2022/09/13 10:25:23;;;;;;;13.32;8.45;;;;;;;14.58;69.80;98626.60;1797311;79;20959;-41
2022/09/13 10:27:54;;;;;;;13.85;9.40;;;;;;;14.61;70.15;98626.59;1797152;79;21120;-40
2022/09/13 10:30:39;;;;;;;13.38;10.23;;;;;;;14.66;69.78;98622.66;1797546;79;20943;-41
2022/09/13 10:33:05;;;;;;;14.18;9.70;;;;;;;14.68;69.59;98625.73;1797217;79;20971;-41
2022/09/13 10:35:32;;;;;;;12.25;9.98;;;;;;;14.67;70.05;98624.17;1797018;79;20986;-41
2022/09/13 10:37:59;;;;;;;15.53;10.23;;;;;;;14.70;70.41;98622.02;1797227;79;21074;-41
2022/09/13 10:40:29;;;;;;;14.03;9.65;;;;;;;14.75;70.46;98621.00;1766174;79;21291;-41
2022/09/13 10:42:57;;;;;;;12.40;9.03;;;;;;;14.81;70.13;98624.66;1797525;79;20959;-41
2022/09/13 10:45:28;;;;;;;14.80;9.20;;;;;;;14.84;69.08;98616.42;1797404;79;21025;-41
2022/09/13 10:48:12;;;;;;;13.48;9.15;;;;;;;14.80;69.18;98622.52;1797145;79;21075;-41
2022/09/13 10:50:38;;;;;;;13.18;7.97;;;;;;;14.75;68.55;98631.14;1796899;79;20935;-41
2022/09/13 10:53:27;;;;;;;14.78;9.20;;;;;;;14.66;67.86;98632.20;1797020;79;21203;-41
2022/09/13 10:55:54;;;;;;;11.47;6.27;;;;;;;14.56;67.96;98628.98;1796952;79;21026;-41
2022/09/13 10:58:21;;;;;;;8.18;7.35;;;;;;;14.54;68.40;98629.95;1796975;79;20936;-41
2022/09/13 11:01:36;;;;;;;10.85;8.50;;;;;;;14.58;68.50;98633.42;1786287;79;21820;-41
2022/09/13 11:04:30;;;;;;;12.88;9.33;;;;;;;14.58;68.33;98634.20;1783852;79;21058;-40
2022/09/13 11:07:18;;;;;;;11.35;8.55;;;;;;;14.54;68.33;98634.05;1783302;80;21753;-40
2022/09/13 11:10:00;;;;;;;13.32;9.55;;;;;;;14.46;68.23;98633.94;1783675;80;21508;-41
2022/09/13 11:12:44;;;;;;;13.10;8.10;;;;;;;14.37;68.24;98634.98;1783771;79;21592;-41
2022/09/13 11:15:46;;;;;;;11.88;9.08;;;;;;;14.33;68.69;98636.33;1783075;80;20988;-41
2022/09/13 11:18:50;;;;;;;14.25;9.30;;;;;;;14.37;68.95;98636.34;1783777;79;21074;-40
2022/09/13 11:21:25;;;;;;;17.12;10.08;;;;;;;14.34;69.01;98637.88;1783841;79;21117;-40
2022/09/13 11:24:16;;;;;;;12.82;8.60;;;;;;;14.29;69.14;98636.95;1783588;79;20963;-41
2022/09/13 11:27:08;;;;;;;10.60;7.40;;;;;;;14.26;69.00;98635.03;1783753;79;21050;-40
2022/09/13 11:30:11;;;;;;;10.75;8.05;;;;;;;14.25;68.55;98634.25;1783714;79;21528;-40
2022/09/13 11:32:59;;;;;;;10.95;8.45;;;;;;;14.21;68.65;98638.96;1760651;80;21011;-40
2022/09/13 11:35:38;;;;;;;13.00;8.25;;;;;;;14.14;69.18;98644.45;1783847;79;21912;-40
2022/09/13 11:38:28;;;;;;;8.90;7.93;;;;;;;14.11;69.37;98641.17;1783811;80;20982;-41
2022/09/13 11:41:31;;;;;;;11.10;7.05;;;;;;;14.10;69.67;98640.98;1783762;79;20967;-41
2022/09/13 11:44:27;;;;;;;;;;;;;;;14.16;69.09;98643.48;1785252;80;21469;-41
2022/09/13 11:47:33;;;;;;;12.05;7.70;;;;;;;14.16;68.80;98639.97;1783865;80;20182;-40
2022/09/13 11:50:20;;;;;;;12.75;7.85;;;;;;;14.12;69.33;98646.04;1784061;79;21218;-40
2022/09/13 11:53:18;;;;;;;12.95;8.00;;;;;;;14.14;68.90;98644.45;1783966;80;21035;-41
2022/09/13 11:55:49;;;;;;;10.72;7.28;;;;;;;14.14;68.58;98652.63;1783968;80;21188;-40
2022/09/13 11:58:21;;;;;;;;;;;;;;;14.12;68.16;98646.04;1786947;80;21465;-41
2022/09/13 12:00:56;;;;;;;13.55;8.40;;;;;;;14.13;67.88;98652.47;1787999;79;20198;-41
2022/09/13 12:03:45;;;;;;;13.50;8.10;;;;;;;14.04;68.04;98651.36;1791489;79;21836;-41
2022/09/13 12:06:26;;;;;;;11.95;7.83;;;;;;;14.03;68.05;98650.58;1790939;79;20960;-40